sensor_id;sensor_type;location;lat;lon;timestamp;P1;durP1;ratioP1;P2;durP2;ratioP2
37199;SDS011;23096;50.892;16.746;2023-08-07T00:00:13;3.30;;;2.00;;
37199;SDS011;23096;50.892;16.746;2023-08-07T00:02:38;1.60;;;1.50;;
37199;SDS011;23096;50.892;16.746;2023-08-07T00:05:04;3.30;;;1.50;;
37199;SDS011;23096;50.892;16.746;2023-08-07T00:07:31;2.30;;;1.80;;
37199;SDS011;23096;50.892;16.746;2023-08-07T00:09:57;2.00;;;1.80;;
37199;SDS011;23096;50.892;16.746;2023-08-07T00:12:22;3.00;;;1.40;;
37199;SDS011;23096;50.892;16.746;2023-08-07T00:14:49;2.10;;;1.70;;
37199;SDS011;23096;50.892;16.746;2023-08-07T00:17:15;2.10;;;1.80;;
37199;SDS011;23096;50.892;16.746;2023-08-07T00:19:41;2.50;;;1.50;;
37199;SDS011;23096;50.892;16.746;2023-08-07T00:22:07;4.00;;;2.00;;
37199;SDS011;23096;50.892;16.746;2023-08-07T00:24:32;1.70;;;1.60;;
37199;SDS011;23096;50.892;16.746;2023-08-07T00:26:58;1.40;;;1.30;;
37199;SDS011;23096;50.892;16.746;2023-08-07T00:29:23;3.90;;;1.80;;
37199;SDS011;23096;50.892;16.746;2023-08-07T00:31:49;1.40;;;1.30;;
37199;SDS011;23096;50.892;16.746;2023-08-07T00:34:14;2.20;;;1.60;;
37199;SDS011;23096;50.892;16.746;2023-08-07T00:36:40;1.40;;;1.30;;
37199;SDS011;23096;50.892;16.746;2023-08-07T00:39:06;1.40;;;1.30;;
37199;SDS011;23096;50.892;16.746;2023-08-07T00:44:03;3.20;;;1.40;;
37199;SDS011;23096;50.892;16.746;2023-08-07T00:46:29;1.90;;;1.60;;
37199;SDS011;23096;50.892;16.746;2023-08-07T00:48:55;3.50;;;1.70;;
37199;SDS011;23096;50.892;16.746;2023-08-07T00:51:22;1.70;;;1.60;;
37199;SDS011;23096;50.892;16.746;2023-08-07T00:53:48;3.20;;;1.20;;
37199;SDS011;23096;50.892;16.746;2023-08-07T00:56:14;2.00;;;1.80;;
37199;SDS011;23096;50.892;16.746;2023-08-07T00:58:40;1.90;;;1.80;;
37199;SDS011;23096;50.892;16.746;2023-08-07T01:01:06;1.80;;;1.70;;
37199;SDS011;23096;50.892;16.746;2023-08-07T01:03:32;1.90;;;1.70;;
37199;SDS011;23096;50.892;16.746;2023-08-07T01:05:59;2.50;;;2.30;;
37199;SDS011;23096;50.892;16.746;2023-08-07T01:08:25;2.60;;;2.30;;
37199;SDS011;23096;50.892;16.746;2023-08-07T01:10:57;3.50;;;3.20;;
37199;SDS011;23096;50.892;16.746;2023-08-07T01:14:28;3.70;;;2.80;;
37199;SDS011;23096;50.892;16.746;2023-08-07T01:19:15;2.80;;;2.60;;
37199;SDS011;23096;50.892;16.746;2023-08-07T01:21:48;2.60;;;2.40;;
37199;SDS011;23096;50.892;16.746;2023-08-07T01:24:14;2.70;;;2.50;;
37199;SDS011;23096;50.892;16.746;2023-08-07T01:26:39;3.50;;;2.50;;
37199;SDS011;23096;50.892;16.746;2023-08-07T01:29:12;2.70;;;2.30;;
37199;SDS011;23096;50.892;16.746;2023-08-07T01:31:45;2.70;;;2.50;;
37199;SDS011;23096;50.892;16.746;2023-08-07T01:34:15;3.00;;;2.70;;
37199;SDS011;23096;50.892;16.746;2023-08-07T01:36:43;3.10;;;2.80;;
37199;SDS011;23096;50.892;16.746;2023-08-07T01:39:13;2.80;;;2.60;;
37199;SDS011;23096;50.892;16.746;2023-08-07T01:41:40;2.60;;;2.40;;
37199;SDS011;23096;50.892;16.746;2023-08-07T01:44:07;3.20;;;2.90;;
37199;SDS011;23096;50.892;16.746;2023-08-07T01:46:32;3.40;;;2.70;;
37199;SDS011;23096;50.892;16.746;2023-08-07T01:48:58;3.00;;;2.70;;
37199;SDS011;23096;50.892;16.746;2023-08-07T01:51:24;3.20;;;2.90;;
37199;SDS011;23096;50.892;16.746;2023-08-07T01:53:49;3.40;;;3.00;;
37199;SDS011;23096;50.892;16.746;2023-08-07T01:56:15;2.60;;;2.40;;
37199;SDS011;23096;50.892;16.746;2023-08-07T01:58:41;2.90;;;2.60;;
37199;SDS011;23096;50.892;16.746;2023-08-07T02:01:06;3.00;;;2.70;;
37199;SDS011;23096;50.892;16.746;2023-08-07T02:03:32;4.00;;;3.60;;
37199;SDS011;23096;50.892;16.746;2023-08-07T02:05:58;3.80;;;3.50;;
37199;SDS011;23096;50.892;16.746;2023-08-07T02:08:24;3.90;;;3.30;;
37199;SDS011;23096;50.892;16.746;2023-08-07T02:10:50;3.50;;;3.20;;
37199;SDS011;23096;50.892;16.746;2023-08-07T02:13:15;3.90;;;3.50;;
37199;SDS011;23096;50.892;16.746;2023-08-07T02:15:41;3.50;;;3.20;;
37199;SDS011;23096;50.892;16.746;2023-08-07T02:18:07;3.70;;;2.70;;
37199;SDS011;23096;50.892;16.746;2023-08-07T02:20:32;5.00;;;2.80;;
37199;SDS011;23096;50.892;16.746;2023-08-07T02:23:00;2.90;;;2.70;;
37199;SDS011;23096;50.892;16.746;2023-08-07T02:25:28;3.20;;;2.60;;
37199;SDS011;23096;50.892;16.746;2023-08-07T02:28:01;2.50;;;2.30;;
37199;SDS011;23096;50.892;16.746;2023-08-07T02:30:26;2.70;;;2.50;;
37199;SDS011;23096;50.892;16.746;2023-08-07T02:32:52;4.50;;;2.60;;
37199;SDS011;23096;50.892;16.746;2023-08-07T02:35:17;2.60;;;2.30;;
37199;SDS011;23096;50.892;16.746;2023-08-07T02:37:43;2.80;;;2.60;;
37199;SDS011;23096;50.892;16.746;2023-08-07T02:40:08;3.00;;;2.80;;
37199;SDS011;23096;50.892;16.746;2023-08-07T02:42:36;2.50;;;2.30;;
37199;SDS011;23096;50.892;16.746;2023-08-07T02:45:01;2.90;;;2.70;;
37199;SDS011;23096;50.892;16.746;2023-08-07T02:47:27;3.20;;;2.80;;
37199;SDS011;23096;50.892;16.746;2023-08-07T02:49:52;2.30;;;2.00;;
37199;SDS011;23096;50.892;16.746;2023-08-07T02:52:18;2.60;;;2.30;;
37199;SDS011;23096;50.892;16.746;2023-08-07T02:54:43;2.50;;;2.30;;
37199;SDS011;23096;50.892;16.746;2023-08-07T02:57:09;2.30;;;2.10;;
37199;SDS011;23096;50.892;16.746;2023-08-07T02:59:35;2.50;;;2.30;;
37199;SDS011;23096;50.892;16.746;2023-08-07T03:02:00;3.10;;;2.40;;
37199;SDS011;23096;50.892;16.746;2023-08-07T03:04:26;2.10;;;1.90;;
37199;SDS011;23096;50.892;16.746;2023-08-07T03:06:52;2.20;;;1.90;;
37199;SDS011;23096;50.892;16.746;2023-08-07T03:09:18;2.70;;;2.50;;
37199;SDS011;23096;50.892;16.746;2023-08-07T03:11:43;2.20;;;2.10;;
37199;SDS011;23096;50.892;16.746;2023-08-07T03:14:09;3.10;;;2.40;;
37199;SDS011;23096;50.892;16.746;2023-08-07T03:16:34;2.40;;;2.20;;
37199;SDS011;23096;50.892;16.746;2023-08-07T03:19:00;2.80;;;2.60;;
37199;SDS011;23096;50.892;16.746;2023-08-07T03:21:26;2.40;;;2.20;;
37199;SDS011;23096;50.892;16.746;2023-08-07T03:23:51;2.50;;;2.30;;
37199;SDS011;23096;50.892;16.746;2023-08-07T03:26:17;2.20;;;2.00;;
37199;SDS011;23096;50.892;16.746;2023-08-07T03:28:43;2.30;;;2.10;;
37199;SDS011;23096;50.892;16.746;2023-08-07T03:31:12;2.90;;;2.60;;
37199;SDS011;23096;50.892;16.746;2023-08-07T03:33:37;1.90;;;1.80;;
37199;SDS011;23096;50.892;16.746;2023-08-07T03:36:03;2.40;;;2.20;;
37199;SDS011;23096;50.892;16.746;2023-08-07T03:38:29;2.80;;;2.00;;
37199;SDS011;23096;50.892;16.746;2023-08-07T03:40:55;3.00;;;2.10;;
37199;SDS011;23096;50.892;16.746;2023-08-07T03:43:21;2.60;;;2.30;;
37199;SDS011;23096;50.892;16.746;2023-08-07T03:45:47;6.50;;;2.00;;
37199;SDS011;23096;50.892;16.746;2023-08-07T03:48:13;1.90;;;1.70;;
37199;SDS011;23096;50.892;16.746;2023-08-07T03:50:40;2.30;;;2.10;;
37199;SDS011;23096;50.892;16.746;2023-08-07T03:53:06;2.10;;;1.70;;
37199;SDS011;23096;50.892;16.746;2023-08-07T03:55:36;3.30;;;2.60;;
37199;SDS011;23096;50.892;16.746;2023-08-07T03:58:02;1.80;;;1.60;;
37199;SDS011;23096;50.892;16.746;2023-08-07T04:00:28;2.40;;;1.80;;
37199;SDS011;23096;50.892;16.746;2023-08-07T04:02:53;2.90;;;2.20;;
37199;SDS011;23096;50.892;16.746;2023-08-07T04:05:19;2.50;;;2.30;;
37199;SDS011;23096;50.892;16.746;2023-08-07T04:07:44;3.10;;;1.80;;
37199;SDS011;23096;50.892;16.746;2023-08-07T04:10:10;2.40;;;1.70;;
37199;SDS011;23096;50.892;16.746;2023-08-07T04:12:35;1.90;;;1.80;;
37199;SDS011;23096;50.892;16.746;2023-08-07T04:15:01;2.30;;;2.10;;
37199;SDS011;23096;50.892;16.746;2023-08-07T04:17:26;2.30;;;1.90;;
37199;SDS011;23096;50.892;16.746;2023-08-07T04:19:52;2.30;;;2.00;;
37199;SDS011;23096;50.892;16.746;2023-08-07T04:22:17;2.10;;;2.00;;
37199;SDS011;23096;50.892;16.746;2023-08-07T04:24:43;2.00;;;1.90;;
37199;SDS011;23096;50.892;16.746;2023-08-07T04:27:08;2.20;;;1.70;;
37199;SDS011;23096;50.892;16.746;2023-08-07T04:29:34;2.40;;;2.20;;
37199;SDS011;23096;50.892;16.746;2023-08-07T04:32:00;2.40;;;2.20;;
37199;SDS011;23096;50.892;16.746;2023-08-07T04:34:25;2.50;;;1.60;;
37199;SDS011;23096;50.892;16.746;2023-08-07T04:36:51;1.90;;;1.60;;
37199;SDS011;23096;50.892;16.746;2023-08-07T04:39:20;1.90;;;1.80;;
37199;SDS011;23096;50.892;16.746;2023-08-07T04:41:45;3.50;;;1.90;;
37199;SDS011;23096;50.892;16.746;2023-08-07T04:44:12;3.00;;;2.00;;
37199;SDS011;23096;50.892;16.746;2023-08-07T04:46:38;1.80;;;1.70;;
37199;SDS011;23096;50.892;16.746;2023-08-07T04:49:03;2.40;;;1.80;;
37199;SDS011;23096;50.892;16.746;2023-08-07T04:51:29;2.20;;;1.60;;
37199;SDS011;23096;50.892;16.746;2023-08-07T04:53:56;3.20;;;1.80;;
37199;SDS011;23096;50.892;16.746;2023-08-07T04:56:22;2.00;;;1.80;;
37199;SDS011;23096;50.892;16.746;2023-08-07T04:58:47;2.80;;;1.90;;
37199;SDS011;23096;50.892;16.746;2023-08-07T05:01:13;2.40;;;1.70;;
37199;SDS011;23096;50.892;16.746;2023-08-07T05:03:38;1.80;;;1.40;;
37199;SDS011;23096;50.892;16.746;2023-08-07T05:06:04;1.70;;;1.40;;
37199;SDS011;23096;50.892;16.746;2023-08-07T05:08:29;3.10;;;1.80;;
37199;SDS011;23096;50.892;16.746;2023-08-07T05:10:55;1.50;;;1.40;;
37199;SDS011;23096;50.892;16.746;2023-08-07T05:13:20;2.30;;;1.60;;
37199;SDS011;23096;50.892;16.746;2023-08-07T05:15:49;1.80;;;1.70;;
37199;SDS011;23096;50.892;16.746;2023-08-07T05:18:15;2.30;;;1.30;;
37199;SDS011;23096;50.892;16.746;2023-08-07T05:20:41;1.50;;;1.10;;
37199;SDS011;23096;50.892;16.746;2023-08-07T05:23:08;1.60;;;1.50;;
37199;SDS011;23096;50.892;16.746;2023-08-07T05:25:33;1.70;;;1.60;;
37199;SDS011;23096;50.892;16.746;2023-08-07T05:27:59;2.10;;;1.70;;
37199;SDS011;23096;50.892;16.746;2023-08-07T05:30:24;1.60;;;1.50;;
37199;SDS011;23096;50.892;16.746;2023-08-07T05:32:50;1.60;;;1.20;;
37199;SDS011;23096;50.892;16.746;2023-08-07T05:35:15;3.10;;;1.90;;
37199;SDS011;23096;50.892;16.746;2023-08-07T05:37:41;1.50;;;1.40;;
37199;SDS011;23096;50.892;16.746;2023-08-07T05:40:07;2.00;;;0.80;;
37199;SDS011;23096;50.892;16.746;2023-08-07T05:42:32;2.60;;;1.00;;
37199;SDS011;23096;50.892;16.746;2023-08-07T05:44:59;1.10;;;0.90;;
37199;SDS011;23096;50.892;16.746;2023-08-07T05:47:25;1.40;;;0.90;;
37199;SDS011;23096;50.892;16.746;2023-08-07T05:49:50;1.20;;;1.00;;
37199;SDS011;23096;50.892;16.746;2023-08-07T05:52:17;0.90;;;0.70;;
37199;SDS011;23096;50.892;16.746;2023-08-07T05:54:43;1.10;;;1.00;;
37199;SDS011;23096;50.892;16.746;2023-08-07T05:57:08;2.20;;;1.00;;
37199;SDS011;23096;50.892;16.746;2023-08-07T05:59:34;2.90;;;1.00;;
37199;SDS011;23096;50.892;16.746;2023-08-07T06:02:01;2.60;;;1.20;;
37199;SDS011;23096;50.892;16.746;2023-08-07T06:04:27;2.10;;;1.60;;
37199;SDS011;23096;50.892;16.746;2023-08-07T06:06:52;1.20;;;1.10;;
37199;SDS011;23096;50.892;16.746;2023-08-07T06:09:18;3.00;;;1.20;;
37199;SDS011;23096;50.892;16.746;2023-08-07T06:11:43;1.80;;;1.30;;
37199;SDS011;23096;50.892;16.746;2023-08-07T06:14:09;2.50;;;1.60;;
37199;SDS011;23096;50.892;16.746;2023-08-07T06:16:36;1.90;;;1.30;;
37199;SDS011;23096;50.892;16.746;2023-08-07T06:19:01;1.60;;;1.50;;
37199;SDS011;23096;50.892;16.746;2023-08-07T06:21:28;1.90;;;1.60;;
37199;SDS011;23096;50.892;16.746;2023-08-07T06:23:54;1.40;;;1.30;;
37199;SDS011;23096;50.892;16.746;2023-08-07T06:26:20;1.50;;;1.40;;
37199;SDS011;23096;50.892;16.746;2023-08-07T06:28:45;2.30;;;1.50;;
37199;SDS011;23096;50.892;16.746;2023-08-07T06:31:11;3.00;;;1.80;;
37199;SDS011;23096;50.892;16.746;2023-08-07T06:33:37;2.50;;;1.90;;
37199;SDS011;23096;50.892;16.746;2023-08-07T06:36:03;1.70;;;1.50;;
37199;SDS011;23096;50.892;16.746;2023-08-07T06:38:30;1.60;;;1.50;;
37199;SDS011;23096;50.892;16.746;2023-08-07T06:40:56;2.00;;;1.80;;
37199;SDS011;23096;50.892;16.746;2023-08-07T06:43:22;2.30;;;2.10;;
37199;SDS011;23096;50.892;16.746;2023-08-07T06:45:51;2.50;;;1.70;;
37199;SDS011;23096;50.892;16.746;2023-08-07T06:48:18;1.90;;;1.60;;
37199;SDS011;23096;50.892;16.746;2023-08-07T06:50:45;3.60;;;2.40;;
37199;SDS011;23096;50.892;16.746;2023-08-07T06:53:11;3.40;;;2.50;;
37199;SDS011;23096;50.892;16.746;2023-08-07T06:55:37;2.20;;;2.00;;
37199;SDS011;23096;50.892;16.746;2023-08-07T06:58:03;2.00;;;1.70;;
37199;SDS011;23096;50.892;16.746;2023-08-07T07:00:28;3.00;;;2.10;;
37199;SDS011;23096;50.892;16.746;2023-08-07T07:02:53;3.30;;;1.80;;
37199;SDS011;23096;50.892;16.746;2023-08-07T07:05:19;2.40;;;2.10;;
37199;SDS011;23096;50.892;16.746;2023-08-07T07:07:44;2.70;;;2.10;;
37199;SDS011;23096;50.892;16.746;2023-08-07T07:10:10;2.20;;;1.90;;
37199;SDS011;23096;50.892;16.746;2023-08-07T07:12:36;2.50;;;2.00;;
37199;SDS011;23096;50.892;16.746;2023-08-07T07:15:01;2.60;;;2.10;;
37199;SDS011;23096;50.892;16.746;2023-08-07T07:17:27;4.40;;;2.70;;
37199;SDS011;23096;50.892;16.746;2023-08-07T07:19:53;3.10;;;2.70;;
37199;SDS011;23096;50.892;16.746;2023-08-07T07:22:18;2.40;;;2.20;;
37199;SDS011;23096;50.892;16.746;2023-08-07T07:24:44;1.90;;;1.80;;
37199;SDS011;23096;50.892;16.746;2023-08-07T07:27:10;2.10;;;1.90;;
37199;SDS011;23096;50.892;16.746;2023-08-07T07:29:35;2.90;;;2.10;;
37199;SDS011;23096;50.892;16.746;2023-08-07T07:32:01;4.00;;;2.50;;
37199;SDS011;23096;50.892;16.746;2023-08-07T07:34:26;2.60;;;2.40;;
37199;SDS011;23096;50.892;16.746;2023-08-07T07:36:52;3.30;;;2.50;;
37199;SDS011;23096;50.892;16.746;2023-08-07T07:39:19;3.30;;;2.00;;
37199;SDS011;23096;50.892;16.746;2023-08-07T07:41:45;2.50;;;2.10;;
37199;SDS011;23096;50.892;16.746;2023-08-07T07:44:10;2.80;;;2.20;;
37199;SDS011;23096;50.892;16.746;2023-08-07T07:46:36;2.40;;;2.20;;
37199;SDS011;23096;50.892;16.746;2023-08-07T07:49:01;3.00;;;2.50;;
37199;SDS011;23096;50.892;16.746;2023-08-07T07:51:28;4.40;;;2.20;;
37199;SDS011;23096;50.892;16.746;2023-08-07T07:53:54;2.50;;;2.30;;
37199;SDS011;23096;50.892;16.746;2023-08-07T07:56:20;3.00;;;2.60;;
37199;SDS011;23096;50.892;16.746;2023-08-07T07:58:45;5.20;;;2.80;;
37199;SDS011;23096;50.892;16.746;2023-08-07T08:01:10;7.20;;;3.10;;
37199;SDS011;23096;50.892;16.746;2023-08-07T08:03:36;3.80;;;2.70;;
37199;SDS011;23096;50.892;16.746;2023-08-07T08:06:02;3.80;;;2.10;;
37199;SDS011;23096;50.892;16.746;2023-08-07T08:08:28;3.20;;;2.40;;
37199;SDS011;23096;50.892;16.746;2023-08-07T08:10:53;5.20;;;2.60;;
37199;SDS011;23096;50.892;16.746;2023-08-07T08:13:19;3.50;;;2.50;;
37199;SDS011;23096;50.892;16.746;2023-08-07T08:15:45;4.10;;;2.40;;
37199;SDS011;23096;50.892;16.746;2023-08-07T08:18:11;4.30;;;2.90;;
37199;SDS011;23096;50.892;16.746;2023-08-07T08:20:37;3.60;;;2.60;;
37199;SDS011;23096;50.892;16.746;2023-08-07T08:23:04;4.50;;;2.20;;
37199;SDS011;23096;50.892;16.746;2023-08-07T08:25:30;4.30;;;2.80;;
37199;SDS011;23096;50.892;16.746;2023-08-07T08:27:56;4.40;;;2.80;;
37199;SDS011;23096;50.892;16.746;2023-08-07T08:30:22;5.70;;;2.80;;
37199;SDS011;23096;50.892;16.746;2023-08-07T08:32:47;2.50;;;2.30;;
37199;SDS011;23096;50.892;16.746;2023-08-07T08:35:13;3.30;;;2.30;;
37199;SDS011;23096;50.892;16.746;2023-08-07T08:37:38;2.30;;;1.90;;
37199;SDS011;23096;50.892;16.746;2023-08-07T08:40:04;5.20;;;2.10;;
37199;SDS011;23096;50.892;16.746;2023-08-07T08:42:32;5.70;;;1.90;;
37199;SDS011;23096;50.892;16.746;2023-08-07T08:44:57;2.40;;;2.10;;
37199;SDS011;23096;50.892;16.746;2023-08-07T08:47:27;4.50;;;2.20;;
37199;SDS011;23096;50.892;16.746;2023-08-07T08:50:01;2.70;;;1.70;;
37199;SDS011;23096;50.892;16.746;2023-08-07T08:52:30;4.60;;;2.10;;
37199;SDS011;23096;50.892;16.746;2023-08-07T08:54:57;4.40;;;1.90;;
37199;SDS011;23096;50.892;16.746;2023-08-07T08:57:26;5.30;;;2.70;;
37199;SDS011;23096;50.892;16.746;2023-08-07T08:59:53;2.80;;;1.80;;
37199;SDS011;23096;50.892;16.746;2023-08-07T09:02:18;3.30;;;2.40;;
37199;SDS011;23096;50.892;16.746;2023-08-07T09:04:44;3.40;;;2.30;;
37199;SDS011;23096;50.892;16.746;2023-08-07T09:07:11;4.40;;;2.20;;
37199;SDS011;23096;50.892;16.746;2023-08-07T09:09:39;5.70;;;2.50;;
37199;SDS011;23096;50.892;16.746;2023-08-07T09:12:06;4.30;;;2.60;;
37199;SDS011;23096;50.892;16.746;2023-08-07T09:14:36;3.10;;;2.20;;
37199;SDS011;23096;50.892;16.746;2023-08-07T09:17:05;2.90;;;2.10;;
37199;SDS011;23096;50.892;16.746;2023-08-07T09:19:31;6.10;;;2.20;;
37199;SDS011;23096;50.892;16.746;2023-08-07T09:21:56;7.90;;;3.10;;
37199;SDS011;23096;50.892;16.746;2023-08-07T09:24:23;3.20;;;2.30;;
37199;SDS011;23096;50.892;16.746;2023-08-07T09:26:50;4.30;;;2.70;;
37199;SDS011;23096;50.892;16.746;2023-08-07T09:29:18;5.50;;;2.30;;
37199;SDS011;23096;50.892;16.746;2023-08-07T09:31:44;2.30;;;2.10;;
37199;SDS011;23096;50.892;16.746;2023-08-07T09:34:12;4.90;;;2.20;;
37199;SDS011;23096;50.892;16.746;2023-08-07T09:36:41;4.20;;;2.50;;
37199;SDS011;23096;50.892;16.746;2023-08-07T09:39:08;3.30;;;2.10;;
37199;SDS011;23096;50.892;16.746;2023-08-07T09:41:33;8.90;;;2.90;;
37199;SDS011;23096;50.892;16.746;2023-08-07T09:44:05;2.90;;;2.10;;
37199;SDS011;23096;50.892;16.746;2023-08-07T09:46:42;4.00;;;2.20;;
37199;SDS011;23096;50.892;16.746;2023-08-07T09:49:08;3.80;;;2.20;;
37199;SDS011;23096;50.892;16.746;2023-08-07T09:51:41;3.70;;;1.80;;
37199;SDS011;23096;50.892;16.746;2023-08-07T09:54:08;5.30;;;2.20;;
37199;SDS011;23096;50.892;16.746;2023-08-07T09:56:34;3.00;;;1.80;;
37199;SDS011;23096;50.892;16.746;2023-08-07T09:59:01;3.00;;;2.10;;
37199;SDS011;23096;50.892;16.746;2023-08-07T10:01:26;3.40;;;1.80;;
37199;SDS011;23096;50.892;16.746;2023-08-07T10:03:53;5.50;;;1.90;;
37199;SDS011;23096;50.892;16.746;2023-08-07T10:06:19;2.40;;;1.80;;
37199;SDS011;23096;50.892;16.746;2023-08-07T10:08:45;5.80;;;1.80;;
37199;SDS011;23096;50.892;16.746;2023-08-07T10:11:11;4.00;;;2.00;;
37199;SDS011;23096;50.892;16.746;2023-08-07T10:13:37;5.20;;;1.90;;
37199;SDS011;23096;50.892;16.746;2023-08-07T10:16:03;1.70;;;1.40;;
37199;SDS011;23096;50.892;16.746;2023-08-07T10:18:29;8.00;;;1.80;;
37199;SDS011;23096;50.892;16.746;2023-08-07T10:20:55;3.00;;;1.70;;
37199;SDS011;23096;50.892;16.746;2023-08-07T10:23:22;2.50;;;1.30;;
37199;SDS011;23096;50.892;16.746;2023-08-07T10:25:48;2.00;;;1.80;;
37199;SDS011;23096;50.892;16.746;2023-08-07T10:28:17;3.80;;;1.80;;
37199;SDS011;23096;50.892;16.746;2023-08-07T10:30:44;4.20;;;1.60;;
37199;SDS011;23096;50.892;16.746;2023-08-07T10:33:10;4.60;;;1.50;;
37199;SDS011;23096;50.892;16.746;2023-08-07T10:35:37;3.90;;;1.20;;
37199;SDS011;23096;50.892;16.746;2023-08-07T10:38:14;9.10;;;1.70;;
37199;SDS011;23096;50.892;16.746;2023-08-07T10:43:28;5.70;;;1.90;;
37199;SDS011;23096;50.892;16.746;2023-08-07T10:48:56;3.20;;;1.90;;
37199;SDS011;23096;50.892;16.746;2023-08-07T10:51:30;1.70;;;1.30;;
37199;SDS011;23096;50.892;16.746;2023-08-07T10:53:56;2.10;;;1.40;;
37199;SDS011;23096;50.892;16.746;2023-08-07T10:56:35;1.80;;;1.40;;
37199;SDS011;23096;50.892;16.746;2023-08-07T10:59:09;4.40;;;1.40;;
37199;SDS011;23096;50.892;16.746;2023-08-07T11:04:11;3.60;;;1.80;;
37199;SDS011;23096;50.892;16.746;2023-08-07T11:06:38;3.10;;;1.80;;
37199;SDS011;23096;50.892;16.746;2023-08-07T11:09:06;4.00;;;1.60;;
37199;SDS011;23096;50.892;16.746;2023-08-07T11:11:40;2.10;;;1.70;;
37199;SDS011;23096;50.892;16.746;2023-08-07T11:14:11;1.80;;;1.60;;
37199;SDS011;23096;50.892;16.746;2023-08-07T11:16:38;2.40;;;1.70;;
37199;SDS011;23096;50.892;16.746;2023-08-07T11:19:04;5.40;;;2.30;;
37199;SDS011;23096;50.892;16.746;2023-08-07T11:21:33;3.20;;;1.40;;
37199;SDS011;23096;50.892;16.746;2023-08-07T11:23:59;4.70;;;1.90;;
37199;SDS011;23096;50.892;16.746;2023-08-07T11:26:26;3.10;;;1.80;;
37199;SDS011;23096;50.892;16.746;2023-08-07T11:28:56;2.80;;;1.70;;
37199;SDS011;23096;50.892;16.746;2023-08-07T11:31:23;2.30;;;1.60;;
37199;SDS011;23096;50.892;16.746;2023-08-07T11:33:50;4.40;;;1.80;;
37199;SDS011;23096;50.892;16.746;2023-08-07T11:36:16;2.10;;;1.70;;
37199;SDS011;23096;50.892;16.746;2023-08-07T11:38:42;4.60;;;2.60;;
37199;SDS011;23096;50.892;16.746;2023-08-07T11:41:10;2.60;;;1.10;;
37199;SDS011;23096;50.892;16.746;2023-08-07T11:43:37;1.90;;;1.40;;
37199;SDS011;23096;50.892;16.746;2023-08-07T11:46:04;4.50;;;1.40;;
37199;SDS011;23096;50.892;16.746;2023-08-07T11:48:35;5.40;;;1.40;;
37199;SDS011;23096;50.892;16.746;2023-08-07T11:51:02;1.70;;;1.40;;
37199;SDS011;23096;50.892;16.746;2023-08-07T11:53:29;4.10;;;1.50;;
37199;SDS011;23096;50.892;16.746;2023-08-07T11:55:57;2.90;;;1.60;;
37199;SDS011;23096;50.892;16.746;2023-08-07T11:58:24;1.90;;;1.40;;
37199;SDS011;23096;50.892;16.746;2023-08-07T12:00:52;8.70;;;2.00;;
37199;SDS011;23096;50.892;16.746;2023-08-07T12:05:57;11.20;;;2.50;;
37199;SDS011;23096;50.892;16.746;2023-08-07T12:08:30;2.90;;;1.30;;
37199;SDS011;23096;50.892;16.746;2023-08-07T12:10:57;2.80;;;1.40;;
37199;SDS011;23096;50.892;16.746;2023-08-07T12:13:26;2.20;;;1.50;;
37199;SDS011;23096;50.892;16.746;2023-08-07T12:15:55;3.10;;;1.80;;
37199;SDS011;23096;50.892;16.746;2023-08-07T12:18:22;1.50;;;1.40;;
37199;SDS011;23096;50.892;16.746;2023-08-07T12:20:49;1.60;;;1.20;;
37199;SDS011;23096;50.892;16.746;2023-08-07T12:23:16;2.20;;;1.20;;
37199;SDS011;23096;50.892;16.746;2023-08-07T12:25:43;2.90;;;1.30;;
37199;SDS011;23096;50.892;16.746;2023-08-07T12:28:09;5.20;;;1.60;;
37199;SDS011;23096;50.892;16.746;2023-08-07T12:30:35;1.20;;;1.10;;
37199;SDS011;23096;50.892;16.746;2023-08-07T12:33:01;2.00;;;1.40;;
37199;SDS011;23096;50.892;16.746;2023-08-07T12:35:30;3.40;;;1.40;;
37199;SDS011;23096;50.892;16.746;2023-08-07T12:37:55;5.60;;;1.10;;
37199;SDS011;23096;50.892;16.746;2023-08-07T12:40:21;2.90;;;1.30;;
37199;SDS011;23096;50.892;16.746;2023-08-07T12:42:48;2.50;;;1.20;;
37199;SDS011;23096;50.892;16.746;2023-08-07T12:45:14;3.60;;;1.20;;
37199;SDS011;23096;50.892;16.746;2023-08-07T12:47:41;2.10;;;1.40;;
37199;SDS011;23096;50.892;16.746;2023-08-07T12:50:08;2.60;;;1.40;;
37199;SDS011;23096;50.892;16.746;2023-08-07T12:52:34;1.70;;;1.50;;
37199;SDS011;23096;50.892;16.746;2023-08-07T12:55:00;1.50;;;1.40;;
37199;SDS011;23096;50.892;16.746;2023-08-07T12:57:26;3.30;;;1.50;;
37199;SDS011;23096;50.892;16.746;2023-08-07T12:59:51;3.10;;;2.00;;
37199;SDS011;23096;50.892;16.746;2023-08-07T13:02:17;1.10;;;1.00;;
37199;SDS011;23096;50.892;16.746;2023-08-07T13:04:43;2.90;;;1.60;;
37199;SDS011;23096;50.892;16.746;2023-08-07T13:07:08;3.10;;;1.30;;
37199;SDS011;23096;50.892;16.746;2023-08-07T13:09:34;1.40;;;1.30;;
37199;SDS011;23096;50.892;16.746;2023-08-07T13:11:59;2.40;;;1.30;;
37199;SDS011;23096;50.892;16.746;2023-08-07T13:14:25;2.50;;;1.70;;
37199;SDS011;23096;50.892;16.746;2023-08-07T13:16:51;1.40;;;1.30;;
37199;SDS011;23096;50.892;16.746;2023-08-07T13:19:16;2.20;;;1.40;;
37199;SDS011;23096;50.892;16.746;2023-08-07T13:21:42;2.60;;;1.50;;
37199;SDS011;23096;50.892;16.746;2023-08-07T13:24:07;4.10;;;2.00;;
37199;SDS011;23096;50.892;16.746;2023-08-07T13:26:33;1.60;;;1.50;;
37199;SDS011;23096;50.892;16.746;2023-08-07T13:28:58;1.70;;;1.60;;
37199;SDS011;23096;50.892;16.746;2023-08-07T13:31:24;1.70;;;1.20;;
37199;SDS011;23096;50.892;16.746;2023-08-07T13:33:49;3.20;;;1.20;;
37199;SDS011;23096;50.892;16.746;2023-08-07T13:36:15;1.10;;;1.00;;
37199;SDS011;23096;50.892;16.746;2023-08-07T13:38:40;2.90;;;1.10;;
37199;SDS011;23096;50.892;16.746;2023-08-07T13:41:06;1.60;;;0.70;;
37199;SDS011;23096;50.892;16.746;2023-08-07T13:43:32;0.60;;;0.50;;
37199;SDS011;23096;50.892;16.746;2023-08-07T13:45:58;1.50;;;1.00;;
37199;SDS011;23096;50.892;16.746;2023-08-07T13:48:23;2.50;;;0.90;;
37199;SDS011;23096;50.892;16.746;2023-08-07T13:50:53;2.80;;;1.00;;
37199;SDS011;23096;50.892;16.746;2023-08-07T13:53:19;1.80;;;0.90;;
37199;SDS011;23096;50.892;16.746;2023-08-07T13:55:49;0.50;;;0.50;;
37199;SDS011;23096;50.892;16.746;2023-08-07T13:58:14;2.10;;;0.80;;
37199;SDS011;23096;50.892;16.746;2023-08-07T14:00:40;1.30;;;0.80;;
37199;SDS011;23096;50.892;16.746;2023-08-07T14:03:07;0.70;;;0.60;;
37199;SDS011;23096;50.892;16.746;2023-08-07T14:05:34;1.30;;;0.70;;
37199;SDS011;23096;50.892;16.746;2023-08-07T14:07:59;0.80;;;0.80;;
37199;SDS011;23096;50.892;16.746;2023-08-07T14:10:25;2.30;;;1.00;;
37199;SDS011;23096;50.892;16.746;2023-08-07T14:12:50;3.00;;;0.70;;
37199;SDS011;23096;50.892;16.746;2023-08-07T14:15:16;2.20;;;0.80;;
37199;SDS011;23096;50.892;16.746;2023-08-07T14:17:42;1.10;;;0.80;;
37199;SDS011;23096;50.892;16.746;2023-08-07T14:20:07;1.30;;;0.60;;
37199;SDS011;23096;50.892;16.746;2023-08-07T14:22:34;1.10;;;0.70;;
37199;SDS011;23096;50.892;16.746;2023-08-07T14:25:02;1.20;;;0.60;;
37199;SDS011;23096;50.892;16.746;2023-08-07T14:27:28;1.10;;;0.80;;
37199;SDS011;23096;50.892;16.746;2023-08-07T14:29:53;0.80;;;0.60;;
37199;SDS011;23096;50.892;16.746;2023-08-07T14:32:19;1.40;;;0.70;;
37199;SDS011;23096;50.892;16.746;2023-08-07T14:34:45;1.40;;;0.60;;
37199;SDS011;23096;50.892;16.746;2023-08-07T14:37:13;1.20;;;0.60;;
37199;SDS011;23096;50.892;16.746;2023-08-07T14:39:38;0.60;;;0.50;;
37199;SDS011;23096;50.892;16.746;2023-08-07T14:42:04;1.40;;;0.70;;
37199;SDS011;23096;50.892;16.746;2023-08-07T14:44:29;0.80;;;0.50;;